Time;durP1;ratioP1;P1;durP2;ratioP2;P2;SDS_P1;SDS_P2;PMS_P1;PMS_P2;Temp;Humidity;BMP_temperature;BMP_pressure;BME280_temperature;BME280_humidity;BME280_pressure;Samples;Min_cycle;Max_cycle;Signal;HPM_P1;HPM_P2
2023/03/08 00:00:26;;;;;;;2.30;2.10;;;;;;;;;;4464286;28;20050;-61
2023/03/08 00:02:36;;;;;;;2.70;2.50;;;;;;;;;;4464627;28;20035;-62
2023/03/08 00:04:47;;;;;;;2.88;2.63;;;;;;;;;;4464036;28;21033;-61
2023/03/08 00:06:57;;;;;;;2.40;2.20;;;;;;;;;;4465854;28;20075;-61
2023/03/08 00:09:08;;;;;;;2.75;2.47;;;;;;;;;;4465069;28;20062;-61
2023/03/08 00:11:19;;;;;;;2.33;2.13;;;;;;;;;;4465438;28;20081;-62
2023/03/08 00:13:29;;;;;;;2.40;2.20;;;;;;;;;;4464533;28;20096;-63
2023/03/08 00:15:39;;;;;;;2.28;2.08;;;;;;;;;;4464813;28;20738;-61
2023/03/08 00:17:50;;;;;;;2.30;2.10;;;;;;;;;;4464458;28;20038;-60
2023/03/08 00:20:00;;;;;;;2.20;2.00;;;;;;;;;;4463990;28;20403;-61
2023/03/08 00:22:11;;;;;;;2.20;2.00;;;;;;;;;;4465658;28;20050;-61
2023/03/08 00:24:21;;;;;;;2.40;2.20;;;;;;;;;;4466172;28;20026;-62
2023/03/08 00:26:31;;;;;;;2.28;2.08;;;;;;;;;;4465277;28;20045;-61
2023/03/08 00:28:42;;;;;;;2.42;2.22;;;;;;;;;;4466296;28;20038;-62
2023/03/08 00:31:00;;;;;;;2.40;2.20;;;;;;;;;;4466097;28;20454;-62
2023/03/08 00:33:10;;;;;;;2.40;2.20;;;;;;;;;;4467121;28;20598;-62
2023/03/08 00:35:20;;;;;;;2.58;2.38;;;;;;;;;;4497965;28;20129;-61
2023/03/08 00:37:30;;;;;;;2.10;2.00;;;;;;;;;;4466811;28;20119;-60
2023/03/08 00:39:41;;;;;;;2.50;2.30;;;;;;;;;;4466296;28;20100;-61
2023/03/08 00:41:51;;;;;;;2.50;2.30;;;;;;;;;;4498695;28;20030;-62
2023/03/08 00:44:02;;;;;;;2.38;2.17;;;;;;;;;;4463775;28;20050;-62
2023/03/08 00:46:13;;;;;;;2.35;2.15;;;;;;;;;;4467862;28;20043;-61
2023/03/08 00:48:23;;;;;;;2.45;2.25;;;;;;;;;;4467576;28;20035;-61
2023/03/08 00:50:35;;;;;;;2.28;2.08;;;;;;;;;;4466979;28;20405;-61
2023/03/08 00:52:45;;;;;;;2.70;2.50;;;;;;;;;;4463560;28;20182;-62
2023/03/08 00:54:56;;;;;;;2.70;2.50;;;;;;;;;;4484797;28;20034;-62
2023/03/08 00:57:08;;;;;;;2.78;2.58;;;;;;;;;;4482563;28;20605;-61
2023/03/08 00:59:18;;;;;;;2.28;2.08;;;;;;;;;;4467803;28;20569;-62
2023/03/08 01:01:28;;;;;;;2.40;2.20;;;;;;;;;;4466295;28;20035;-62
2023/03/08 01:03:39;;;;;;;2.47;2.28;;;;;;;;;;4462962;28;20420;-62
2023/03/08 01:05:50;;;;;;;2.40;2.20;;;;;;;;;;4465254;28;20043;-62
2023/03/08 01:08:02;;;;;;;2.47;2.20;;;;;;;;;;4469162;28;20725;-62
2023/03/08 01:10:13;;;;;;;2.35;2.15;;;;;;;;;;4465030;28;20050;-61
2023/03/08 01:12:24;;;;;;;2.78;2.58;;;;;;;;;;4465934;28;20072;-62
2023/03/08 01:14:34;;;;;;;2.60;2.40;;;;;;;;;;4466680;28;20122;-62
2023/03/08 01:16:44;;;;;;;2.35;2.13;;;;;;;;;;4464865;28;20090;-62
2023/03/08 01:18:55;;;;;;;2.30;2.10;;;;;;;;;;4467059;28;20031;-62
2023/03/08 01:21:06;;;;;;;2.55;2.35;;;;;;;;;;4467227;28;20114;-62
2023/03/08 01:23:16;;;;;;;2.50;2.30;;;;;;;;;;4497818;28;20046;-62
2023/03/08 01:25:27;;;;;;;2.50;2.30;;;;;;;;;;4465318;28;20188;-62
2023/03/08 01:27:38;;;;;;;2.60;2.40;;;;;;;;;;4461900;28;20046;-62
2023/03/08 01:29:48;;;;;;;2.60;2.40;;;;;;;;;;4464827;28;20170;-63
2023/03/08 01:31:58;;;;;;;2.80;2.50;;;;;;;;;;4465733;28;20496;-62
2023/03/08 01:34:09;;;;;;;2.78;2.58;;;;;;;;;;4465036;28;20645;-62
2023/03/08 01:36:20;;;;;;;2.85;2.60;;;;;;;;;;4465198;28;20038;-62
2023/03/08 01:38:30;;;;;;;2.78;2.58;;;;;;;;;;4463517;28;20038;-62
2023/03/08 01:40:42;;;;;;;2.72;2.53;;;;;;;;;;4462366;28;20631;-62
2023/03/08 01:42:52;;;;;;;2.67;2.47;;;;;;;;;;4464194;28;20038;-63
2023/03/08 01:45:04;;;;;;;2.70;2.50;;;;;;;;;;4465464;28;20087;-62
2023/03/08 01:47:42;;;;;;;3.10;2.78;;;;;;;;;;4497890;28;20029;-62
2023/03/08 01:50:02;;;;;;;2.38;2.17;;;;;;;;;;4465603;28;20051;-65
2023/03/08 01:52:24;;;;;;;2.97;2.67;;;;;;;;;;4466804;28;20089;-62
2023/03/08 01:54:41;;;;;;;2.88;2.67;;;;;;;;;;4462680;28;20053;-62
2023/03/08 01:56:53;;;;;;;3.17;2.88;;;;;;;;;;4465028;28;20586;-62
2023/03/08 01:59:03;;;;;;;2.95;2.72;;;;;;;;;;4466775;28;20133;-62
2023/03/08 02:01:14;;;;;;;3.00;2.70;;;;;;;;;;4465334;28;20093;-63
2023/03/08 02:03:24;;;;;;;2.80;2.50;;;;;;;;;;4463613;28;20047;-63
2023/03/08 02:05:40;;;;;;;3.30;3.00;;;;;;;;;;4465887;28;20037;-63
2023/03/08 02:07:58;;;;;;;3.00;2.70;;;;;;;;;;4466127;28;20038;-63
2023/03/08 02:10:12;;;;;;;3.15;2.85;;;;;;;;;;4465420;28;20632;-64
2023/03/08 02:12:22;;;;;;;2.95;2.65;;;;;;;;;;4468035;28;20035;-63
2023/03/08 02:14:33;;;;;;;3.13;2.83;;;;;;;;;;4463861;28;20042;-63
2023/03/08 02:16:43;;;;;;;2.75;2.45;;;;;;;;;;4477956;28;20066;-63
2023/03/08 02:19:01;;;;;;;3.13;2.83;;;;;;;;;;4465002;28;20038;-63
2023/03/08 02:21:11;;;;;;;3.15;2.85;;;;;;;;;;4465269;28;20042;-64
2023/03/08 02:23:23;;;;;;;3.58;2.80;;;;;;;;;;4466354;28;20062;-63
2023/03/08 02:25:33;;;;;;;3.20;2.90;;;;;;;;;;4466864;28;20049;-63
2023/03/08 02:27:44;;;;;;;3.33;2.88;;;;;;;;;;4464858;28;20031;-63
2023/03/08 02:29:54;;;;;;;3.08;2.80;;;;;;;;;;4465477;28;20530;-63
2023/03/08 02:32:06;;;;;;;3.20;2.90;;;;;;;;;;4464970;28;20588;-63
2023/03/08 02:34:16;;;;;;;2.72;2.53;;;;;;;;;;4465762;28;20050;-63
2023/03/08 02:36:26;;;;;;;3.00;2.70;;;;;;;;;;4467243;28;20489;-63
2023/03/08 02:38:37;;;;;;;3.25;2.95;;;;;;;;;;4460127;28;20046;-63
2023/03/08 02:40:50;;;;;;;3.40;2.90;;;;;;;;;;4463724;28;20483;-63
2023/03/08 02:43:00;;;;;;;2.85;2.65;;;;;;;;;;4464718;28;20038;-63
2023/03/08 02:45:10;;;;;;;3.28;2.97;;;;;;;;;;4497396;28;20033;-63
2023/03/08 02:47:21;;;;;;;3.25;2.95;;;;;;;;;;4465885;28;20962;-63
2023/03/08 02:49:31;;;;;;;3.30;3.00;;;;;;;;;;4495313;28;20034;-63
2023/03/08 02:51:42;;;;;;;2.85;2.65;;;;;;;;;;4464835;28;20098;-63
2023/03/08 02:53:53;;;;;;;3.03;2.72;;;;;;;;;;4465876;28;20035;-62
2023/03/08 02:56:04;;;;;;;3.22;2.92;;;;;;;;;;4465434;28;20038;-63
2023/03/08 02:58:14;;;;;;;3.00;2.70;;;;;;;;;;4496149;28;20038;-62
2023/03/08 03:00:25;;;;;;;3.38;3.08;;;;;;;;;;4463688;28;20050;-63
2023/03/08 03:02:36;;;;;;;3.08;2.80;;;;;;;;;;4463579;28;20031;-63
2023/03/08 03:04:46;;;;;;;3.03;2.78;;;;;;;;;;4462538;28;20146;-62
2023/03/08 03:06:57;;;;;;;2.72;2.53;;;;;;;;;;4462939;28;20094;-62
2023/03/08 03:09:08;;;;;;;3.17;2.88;;;;;;;;;;4497447;28;20361;-62
2023/03/08 03:11:19;;;;;;;3.08;2.70;;;;;;;;;;4463620;28;20030;-62
2023/03/08 03:13:31;;;;;;;3.08;2.78;;;;;;;;;;4495728;28;20042;-62
2023/03/08 03:15:42;;;;;;;3.10;2.80;;;;;;;;;;4460485;28;20486;-63
2023/03/08 03:17:52;;;;;;;3.05;2.53;;;;;;;;;;4464498;28;20374;-63
2023/03/08 03:20:05;;;;;;;3.10;2.80;;;;;;;;;;4463243;28;20038;-63
2023/03/08 03:22:15;;;;;;;2.88;2.65;;;;;;;;;;4463690;28;20067;-63
2023/03/08 03:24:26;;;;;;;3.20;2.90;;;;;;;;;;4462254;28;20145;-63
2023/03/08 03:26:40;;;;;;;3.22;2.92;;;;;;;;;;4462375;28;20046;-63
2023/03/08 03:28:51;;;;;;;2.80;2.60;;;;;;;;;;4496880;28;20030;-62
2023/03/08 03:31:09;;;;;;;2.65;2.45;;;;;;;;;;4463389;28;20108;-62
2023/03/08 03:33:20;;;;;;;3.10;2.80;;;;;;;;;;4464268;28;20645;-62
2023/03/08 03:35:31;;;;;;;3.30;3.00;;;;;;;;;;4463898;28;20716;-63
2023/03/08 03:37:41;;;;;;;2.95;2.72;;;;;;;;;;4462785;28;20041;-62
2023/03/08 03:39:52;;;;;;;3.30;3.00;;;;;;;;;;4462649;28;20051;-62
2023/03/08 03:42:02;;;;;;;3.00;2.80;;;;;;;;;;4462781;28;20042;-62
2023/03/08 03:44:13;;;;;;;3.47;3.17;;;;;;;;;;4496172;28;20156;-63
2023/03/08 03:46:25;;;;;;;3.28;2.97;;;;;;;;;;4495851;28;20105;-62
2023/03/08 03:48:37;;;;;;;2.88;2.67;;;;;;;;;;4459627;28;20050;-62
2023/03/08 03:50:58;;;;;;;3.45;3.15;;;;;;;;;;4466100;28;20099;-62
2023/03/08 03:53:08;;;;;;;3.10;2.80;;;;;;;;;;4460909;28;20682;-63
2023/03/08 03:55:19;;;;;;;3.15;2.85;;;;;;;;;;4462307;28;20462;-62
2023/03/08 03:57:30;;;;;;;3.40;2.97;;;;;;;;;;4462888;28;20069;-62
2023/03/08 03:59:41;;;;;;;2.88;2.67;;;;;;;;;;4462874;28;20188;-63
2023/03/08 04:01:51;;;;;;;3.08;2.78;;;;;;;;;;4465720;28;20062;-63
2023/03/08 04:04:28;;;;;;;3.10;2.80;;;;;;;;;;4467644;28;20617;-63
2023/03/08 04:06:38;;;;;;;2.70;2.50;;;;;;;;;;4463894;28;20565;-63
2023/03/08 04:08:57;;;;;;;2.95;2.65;;;;;;;;;;4464839;28;20038;-63
2023/03/08 04:11:10;;;;;;;2.70;2.50;;;;;;;;;;4464026;28;20049;-63
2023/03/08 04:13:20;;;;;;;2.55;2.35;;;;;;;;;;4466390;28;20034;-62
2023/03/08 04:15:31;;;;;;;3.00;2.70;;;;;;;;;;4464544;28;20505;-63
2023/03/08 04:17:44;;;;;;;2.85;2.55;;;;;;;;;;4467431;28;20030;-62
2023/03/08 04:19:55;;;;;;;3.08;2.78;;;;;;;;;;4464485;28;20579;-63
2023/03/08 04:22:05;;;;;;;3.00;2.70;;;;;;;;;;4466935;28;20027;-62
2023/03/08 04:24:22;;;;;;;3.00;2.70;;;;;;;;;;4499166;28;20596;-63
2023/03/08 04:26:36;;;;;;;3.42;3.13;;;;;;;;;;4466378;28;20047;-63
2023/03/08 04:28:47;;;;;;;3.40;3.10;;;;;;;;;;4498624;28;20046;-63
2023/03/08 04:30:57;;;;;;;3.22;2.92;;;;;;;;;;4462245;28;20034;-62
2023/03/08 04:33:08;;;;;;;3.35;3.05;;;;;;;;;;4499182;28;20041;-63
2023/03/08 04:35:27;;;;;;;3.30;3.00;;;;;;;;;;4467101;28;20245;-63
2023/03/08 04:37:39;;;;;;;3.40;3.00;;;;;;;;;;4468082;28;20411;-63
2023/03/08 04:39:54;;;;;;;3.38;3.08;;;;;;;;;;4467082;28;20096;-62
2023/03/08 04:42:04;;;;;;;2.97;2.78;;;;;;;;;;4464734;28;20546;-62
2023/03/08 04:44:16;;;;;;;3.20;2.90;;;;;;;;;;4486253;28;20097;-63
2023/03/08 04:46:30;;;;;;;3.35;3.05;;;;;;;;;;4466758;28;20835;-63
2023/03/08 04:48:42;;;;;;;3.40;3.10;;;;;;;;;;4449927;28;20082;-63
2023/03/08 04:50:53;;;;;;;3.53;3.22;;;;;;;;;;4466113;28;20046;-62
2023/03/08 04:53:04;;;;;;;3.25;2.95;;;;;;;;;;4464969;28;20161;-63
2023/03/08 04:55:15;;;;;;;3.30;3.00;;;;;;;;;;4467830;28;20171;-62
2023/03/08 04:57:25;;;;;;;3.10;2.80;;;;;;;;;;4466689;28;20086;-63
2023/03/08 04:59:39;;;;;;;3.20;2.90;;;;;;;;;;4483243;28;20042;-62
2023/03/08 05:01:50;;;;;;;3.42;3.13;;;;;;;;;;4465910;28;20038;-63
2023/03/08 05:04:00;;;;;;;3.20;2.90;;;;;;;;;;4466182;28;20411;-63
2023/03/08 05:06:17;;;;;;;;;;;;;;;;;;4464059;28;20495;-63
2023/03/08 05:08:28;;;;;;;3.30;3.00;;;;;;;;;;4497048;28;20369;-63
2023/03/08 05:10:38;;;;;;;2.90;2.70;;;;;;;;;;4481816;28;20062;-62
2023/03/08 05:12:50;;;;;;;2.65;2.45;;;;;;;;;;4498268;28;20119;-62
2023/03/08 05:15:01;;;;;;;2.80;2.60;;;;;;;;;;4463439;28;20860;-62
2023/03/08 05:17:11;;;;;;;2.78;2.58;;;;;;;;;;4464862;28;20073;-63
2023/03/08 05:19:22;;;;;;;2.72;2.53;;;;;;;;;;4466919;28;20038;-62
2023/03/08 05:21:35;;;;;;;2.97;2.78;;;;;;;;;;4464627;28;20034;-62
2023/03/08 05:23:46;;;;;;;2.95;2.75;;;;;;;;;;4466826;28;20046;-63
2023/03/08 05:26:00;;;;;;;2.83;2.63;;;;;;;;;;4465906;28;20043;-63
2023/03/08 05:28:14;;;;;;;3.47;3.17;;;;;;;;;;4465826;28;20077;-63
2023/03/08 05:30:26;;;;;;;3.30;3.00;;;;;;;;;;4466360;28;20039;-63
2023/03/08 05:32:36;;;;;;;3.28;2.97;;;;;;;;;;4465870;28;20031;-62
2023/03/08 05:34:46;;;;;;;3.13;2.85;;;;;;;;;;4467457;28;20122;-62
2023/03/08 05:37:04;;;;;;;3.05;2.80;;;;;;;;;;4465169;28;20031;-62
2023/03/08 05:39:17;;;;;;;2.90;2.65;;;;;;;;;;4464186;28;20050;-62
2023/03/08 05:41:35;;;;;;;2.80;2.60;;;;;;;;;;4463449;28;21037;-62
2023/03/08 05:43:45;;;;;;;2.92;2.72;;;;;;;;;;4464367;28;20027;-62
2023/03/08 05:45:59;;;;;;;3.20;2.90;;;;;;;;;;4497255;28;20939;-62
2023/03/08 05:48:11;;;;;;;3.00;2.70;;;;;;;;;;4467654;28;20039;-62
2023/03/08 05:50:21;;;;;;;2.97;2.67;;;;;;;;;;4464847;28;20050;-63
2023/03/08 05:52:35;;;;;;;2.95;2.67;;;;;;;;;;4464420;28;20531;-63
2023/03/08 05:54:48;;;;;;;3.00;2.70;;;;;;;;;;4464750;28;20618;-63
2023/03/08 05:57:02;;;;;;;3.22;2.92;;;;;;;;;;4464166;28;20602;-63
2023/03/08 05:59:13;;;;;;;3.58;3.28;;;;;;;;;;4465451;28;20631;-62
2023/03/08 06:01:25;;;;;;;5.80;5.30;;;;;;;;;;4466035;28;20098;-62
2023/03/08 06:03:38;;;;;;;3.40;3.10;;;;;;;;;;4497178;28;20880;-62
2023/03/08 06:05:48;;;;;;;3.42;3.13;;;;;;;;;;4463725;28;20034;-63
2023/03/08 06:07:59;;;;;;;3.47;3.17;;;;;;;;;;4463800;28;20038;-63
2023/03/08 06:10:10;;;;;;;3.50;3.20;;;;;;;;;;4469040;28;20046;-63
2023/03/08 06:12:21;;;;;;;2.83;2.63;;;;;;;;;;4464899;28;20864;-63
2023/03/08 06:14:36;;;;;;;3.38;3.08;;;;;;;;;;4466404;28;20046;-63
2023/03/08 06:16:47;;;;;;;3.40;3.10;;;;;;;;;;4485223;28;20094;-63
2023/03/08 06:19:00;;;;;;;3.42;3.13;;;;;;;;;;4465376;28;20047;-63
2023/03/08 06:21:18;;;;;;;4.07;3.70;;;;;;;;;;4498973;28;20073;-63
2023/03/08 06:23:32;;;;;;;3.30;3.00;;;;;;;;;;4483935;28;20038;-63
2023/03/08 06:25:42;;;;;;;4.20;3.80;;;;;;;;;;4465339;28;20076;-63
2023/03/08 06:27:53;;;;;;;4.70;4.30;;;;;;;;;;4466829;28;20039;-63
2023/03/08 06:30:10;;;;;;;4.78;4.38;;;;;;;;;;4466985;28;20038;-63
2023/03/08 06:32:20;;;;;;;3.60;3.30;;;;;;;;;;4482449;28;20034;-64
2023/03/08 06:34:31;;;;;;;3.20;2.90;;;;;;;;;;4465979;28;20042;-63
2023/03/08 06:36:42;;;;;;;3.47;3.17;;;;;;;;;;4468415;28;20592;-63
2023/03/08 06:38:52;;;;;;;2.85;2.65;;;;;;;;;;4465884;28;20061;-63
2023/03/08 06:41:02;;;;;;;3.03;2.80;;;;;;;;;;4498660;28;20129;-63
2023/03/08 06:43:13;;;;;;;2.90;2.70;;;;;;;;;;4466822;28;20042;-63
2023/03/08 06:45:23;;;;;;;2.97;2.72;;;;;;;;;;4500349;28;20053;-64
2023/03/08 06:47:34;;;;;;;3.00;2.70;;;;;;;;;;4466988;28;20025;-66
2023/03/08 06:49:44;;;;;;;2.75;2.55;;;;;;;;;;4464900;28;20234;-64
2023/03/08 06:51:54;;;;;;;2.90;2.70;;;;;;;;;;4450738;28;20472;-63
2023/03/08 06:54:05;;;;;;;2.80;2.60;;;;;;;;;;4496572;28;20038;-63
2023/03/08 06:56:16;;;;;;;2.70;2.50;;;;;;;;;;4463251;28;20042;-63
2023/03/08 06:58:26;;;;;;;2.70;2.50;;;;;;;;;;4465623;28;20405;-63
2023/03/08 07:00:37;;;;;;;2.85;2.65;;;;;;;;;;4448877;28;20102;-63
2023/03/08 07:02:48;;;;;;;2.70;2.50;;;;;;;;;;4467482;28;20054;-62
2023/03/08 07:04:58;;;;;;;2.88;2.58;;;;;;;;;;4467513;28;20105;-63
2023/03/08 07:07:09;;;;;;;2.65;2.45;;;;;;;;;;4466107;28;20073;-63
2023/03/08 07:09:19;;;;;;;2.70;2.50;;;;;;;;;;4467011;28;20152;-63
2023/03/08 07:11:31;;;;;;;2.70;2.50;;;;;;;;;;4466560;28;20039;-63
2023/03/08 07:13:42;;;;;;;2.38;2.17;;;;;;;;;;4465812;28;20138;-63
2023/03/08 07:15:52;;;;;;;2.80;2.60;;;;;;;;;;4466101;28;20154;-63
2023/03/08 07:18:02;;;;;;;2.50;2.30;;;;;;;;;;4465015;28;20031;-63
2023/03/08 07:20:14;;;;;;;2.78;2.58;;;;;;;;;;4465162;28;20479;-65
2023/03/08 07:22:24;;;;;;;2.30;2.10;;;;;;;;;;4465770;28;20043;-63
2023/03/08 07:24:34;;;;;;;1.90;1.80;;;;;;;;;;4465388;28;20314;-63
2023/03/08 07:26:45;;;;;;;2.40;2.20;;;;;;;;;;4466295;28;20026;-63
2023/03/08 07:28:56;;;;;;;2.03;1.83;;;;;;;;;;4466302;28;20042;-63
2023/03/08 07:31:09;;;;;;;2.40;2.20;;;;;;;;;;4481745;28;20082;-63
2023/03/08 07:33:20;;;;;;;2.30;2.10;;;;;;;;;;4465237;28;20039;-63
2023/03/08 07:35:30;;;;;;;2.15;1.95;;;;;;;;;;4465372;28;20035;-63
2023/03/08 07:37:42;;;;;;;1.88;1.77;;;;;;;;;;4465783;28;20143;-63
2023/03/08 07:39:53;;;;;;;1.88;1.77;;;;;;;;;;4465929;28;20727;-63
2023/03/08 07:42:03;;;;;;;2.05;1.88;;;;;;;;;;4466621;28;20046;-63
2023/03/08 07:44:15;;;;;;;1.65;1.55;;;;;;;;;;4465462;28;20034;-62
2023/03/08 07:46:27;;;;;;;1.40;1.30;;;;;;;;;;4468792;28;20046;-65
2023/03/08 07:48:37;;;;;;;1.48;1.38;;;;;;;;;;4466213;28;20030;-62
2023/03/08 07:50:47;;;;;;;1.30;1.20;;;;;;;;;;4467435;28;20043;-62
2023/03/08 07:52:58;;;;;;;1.20;1.10;;;;;;;;;;4463706;28;20046;-62
2023/03/08 07:55:10;;;;;;;1.27;1.17;;;;;;;;;;4468044;28;20039;-62
2023/03/08 07:57:20;;;;;;;1.08;1.05;;;;;;;;;;4467551;28;20026;-62
2023/03/08 07:59:30;;;;;;;1.27;1.17;;;;;;;;;;4466826;28;20049;-61
2023/03/08 08:01:41;;;;;;;1.52;1.40;;;;;;;;;;4467447;28;20045;-62
2023/03/08 08:03:51;;;;;;;1.40;1.30;;;;;;;;;;4467201;28;20035;-62
2023/03/08 08:06:03;;;;;;;1.48;1.38;;;;;;;;;;4467191;28;20042;-62
2023/03/08 08:08:13;;;;;;;1.30;1.20;;;;;;;;;;4467864;28;20698;-62
2023/03/08 08:10:23;;;;;;;1.20;1.10;;;;;;;;;;4467953;28;20161;-62
2023/03/08 08:12:33;;;;;;;1.42;1.33;;;;;;;;;;4466106;28;21064;-62
2023/03/08 08:14:44;;;;;;;1.10;1.00;;;;;;;;;;4462931;28;20046;-61
2023/03/08 08:16:55;;;;;;;1.30;1.20;;;;;;;;;;4463921;28;20146;-62
2023/03/08 08:19:05;;;;;;;1.35;1.20;;;;;;;;;;4462869;28;20027;-62
2023/03/08 08:21:16;;;;;;;1.30;1.20;;;;;;;;;;4463201;28;20407;-62
2023/03/08 08:23:27;;;;;;;1.13;1.02;;;;;;;;;;4464039;28;20070;-61
2023/03/08 08:25:38;;;;;;;1.20;1.10;;;;;;;;;;4461966;28;20031;-65
2023/03/08 08:27:48;;;;;;;0.90;0.90;;;;;;;;;;4462996;28;20039;-64
2023/03/08 08:29:59;;;;;;;0.82;0.82;;;;;;;;;;4464223;28;20035;-65
2023/03/08 08:32:09;;;;;;;0.77;0.77;;;;;;;;;;4465540;28;20042;-65
2023/03/08 08:34:19;;;;;;;0.70;0.70;;;;;;;;;;4464500;28;20434;-63
2023/03/08 08:36:30;;;;;;;0.95;0.88;;;;;;;;;;4465259;28;20050;-67
2023/03/08 08:38:42;;;;;;;0.60;0.60;;;;;;;;;;4472564;23;20050;-66
2023/03/08 08:40:52;;;;;;;0.80;0.70;;;;;;;;;;4450621;28;20963;-72
2023/03/08 08:43:02;;;;;;;0.65;0.65;;;;;;;;;;4448419;28;20044;-67
2023/03/08 08:45:13;;;;;;;0.80;0.80;;;;;;;;;;4434832;28;20055;-67
2023/03/08 08:47:23;;;;;;;0.80;0.70;;;;;;;;;;4434795;28;20071;-67
2023/03/08 08:49:33;;;;;;;0.75;0.75;;;;;;;;;;4436780;28;20485;-67
2023/03/08 08:51:43;;;;;;;0.70;0.70;;;;;;;;;;4435807;28;20031;-67
2023/03/08 08:53:54;;;;;;;0.90;0.90;;;;;;;;;;4418666;28;20118;-67
2023/03/08 08:56:15;;;;;;;0.80;0.80;;;;;;;;;;4442669;28;20035;-64
2023/03/08 08:58:25;;;;;;;0.77;0.77;;;;;;;;;;4434955;28;20039;-64
2023/03/08 09:00:36;;;;;;;0.68;0.68;;;;;;;;;;4438709;28;20039;-63
2023/03/08 09:02:46;;;;;;;0.80;0.80;;;;;;;;;;4436860;28;20035;-63
2023/03/08 09:04:56;;;;;;;0.60;0.60;;;;;;;;;;4436182;28;20098;-62
2023/03/08 09:07:07;;;;;;;0.80;0.80;;;;;;;;;;4436623;28;20404;-62
2023/03/08 09:09:17;;;;;;;0.65;0.65;;;;;;;;;;4435732;28;20042;-69
2023/03/08 09:11:27;;;;;;;0.70;0.70;;;;;;;;;;4436317;28;20035;-68
2023/03/08 09:13:40;;;;;;;0.90;0.90;;;;;;;;;;4437176;28;20047;-69
2023/03/08 09:15:50;;;;;;;0.70;0.70;;;;;;;;;;4437731;28;20107;-68
2023/03/08 09:18:01;;;;;;;0.70;0.70;;;;;;;;;;4436340;28;20498;-65
2023/03/08 09:20:11;;;;;;;0.70;0.70;;;;;;;;;;4438686;28;20052;-64
2023/03/08 09:22:21;;;;;;;0.77;0.77;;;;;;;;;;4436607;28;20442;-65
2023/03/08 09:24:32;;;;;;;0.70;0.70;;;;;;;;;;4438114;28;20047;-68
2023/03/08 09:26:42;;;;;;;0.82;0.60;;;;;;;;;;4437876;28;20043;-68
2023/03/08 09:28:53;;;;;;;0.88;0.70;;;;;;;;;;4437097;28;20027;-62
2023/03/08 09:31:11;;;;;;;0.60;0.60;;;;;;;;;;4436095;28;20044;-62
2023/03/08 09:33:22;;;;;;;0.40;0.40;;;;;;;;;;4434900;28;20046;-61
2023/03/08 09:35:32;;;;;;;0.60;0.60;;;;;;;;;;4434453;28;20599;-61
2023/03/08 09:37:42;;;;;;;0.80;0.60;;;;;;;;;;4437483;28;20044;-61
2023/03/08 09:39:53;;;;;;;0.50;0.50;;;;;;;;;;4436670;28;20043;-62
2023/03/08 09:42:04;;;;;;;0.60;0.60;;;;;;;;;;4437417;28;20035;-61
2023/03/08 09:44:18;;;;;;;0.30;0.30;;;;;;;;;;4435241;28;20058;-64
2023/03/08 09:46:31;;;;;;;0.50;0.50;;;;;;;;;;4436989;28;20039;-63
2023/03/08 09:48:46;;;;;;;0.60;0.60;;;;;;;;;;4436330;28;20062;-64
2023/03/08 09:51:00;;;;;;;0.50;0.50;;;;;;;;;;4436631;28;20035;-67
2023/03/08 09:53:25;;;;;;;0.60;0.60;;;;;;;;;;4442514;28;20047;-66
2023/03/08 09:55:41;;;;;;;0.60;0.60;;;;;;;;;;4436185;28;20031;-65
2023/03/08 09:57:52;;;;;;;0.50;0.50;;;;;;;;;;4438765;28;20182;-66
2023/03/08 10:00:10;;;;;;;0.43;0.43;;;;;;;;;;4436034;28;20032;-66
2023/03/08 10:02:41;;;;;;;0.50;0.50;;;;;;;;;;4436880;28;20050;-67
2023/03/08 10:04:57;;;;;;;0.52;0.52;;;;;;;;;;4436900;28;20042;-68
2023/03/08 10:07:08;;;;;;;0.60;0.60;;;;;;;;;;4437114;28;20504;-71
2023/03/08 10:09:26;;;;;;;0.68;0.68;;;;;;;;;;4438211;28;20913;-67
2023/03/08 10:11:42;;;;;;;0.70;0.70;;;;;;;;;;4435919;28;20028;-68
2023/03/08 10:13:54;;;;;;;1.50;1.30;;;;;;;;;;4437150;28;20046;-66
2023/03/08 10:16:11;;;;;;;3.15;2.50;;;;;;;;;;4423807;28;20035;-66
2023/03/08 11:00:23;;;;;;;0.50;0.50;;;;;;;;;;5463120;23;20086;-66
2023/03/08 11:02:33;;;;;;;0.70;0.70;;;;;;;;;;5439842;23;20006;-66
2023/03/08 11:04:55;;;;;;;0.43;0.40;;;;;;;;;;5451994;23;34449;-66
2023/03/08 11:07:10;;;;;;;0.50;0.50;;;;;;;;;;5448198;23;20066;-64
2023/03/08 11:09:29;;;;;;;0.50;0.50;;;;;;;;;;5462281;23;20021;-65
2023/03/08 11:11:41;;;;;;;0.50;0.50;;;;;;;;;;5462048;23;20007;-65
2023/03/08 11:13:52;;;;;;;0.50;0.50;;;;;;;;;;5462633;23;20139;-65
2023/03/08 11:16:41;;;;;;;0.57;0.57;;;;;;;;;;5452111;23;20101;-64
2023/03/08 11:19:06;;;;;;;0.50;0.50;;;;;;;;;;5462686;23;20136;-65
2023/03/08 11:21:29;;;;;;;0.45;0.40;;;;;;;;;;5464242;23;20010;-65
2023/03/08 11:23:48;;;;;;;0.50;0.50;;;;;;;;;;5462975;23;20050;-65
2023/03/08 11:26:15;;;;;;;0.50;0.50;;;;;;;;;;5461950;23;20041;-65
2023/03/08 11:28:53;;;;;;;0.50;0.50;;;;;;;;;;5463268;23;20613;-65
2023/03/08 11:31:13;;;;;;;0.47;0.47;;;;;;;;;;5445350;23;20022;-66
2023/03/08 11:33:34;;;;;;;0.40;0.40;;;;;;;;;;5456843;23;20477;-66
2023/03/08 11:35:56;;;;;;;0.50;0.50;;;;;;;;;;5455799;23;20006;-67
2023/03/08 11:38:09;;;;;;;0.40;0.40;;;;;;;;;;5456688;23;20556;-65
2023/03/08 11:40:23;;;;;;;0.40;0.40;;;;;;;;;;5458173;23;20046;-65
2023/03/08 11:42:50;;;;;;;0.38;0.38;;;;;;;;;;5456398;23;20007;-66
2023/03/08 11:45:21;;;;;;;0.32;0.32;;;;;;;;;;5457010;23;20007;-64
2023/03/08 11:47:53;;;;;;;0.30;0.30;;;;;;;;;;5457070;23;20102;-65
2023/03/08 11:50:12;;;;;;;0.40;0.40;;;;;;;;;;5458460;23;20035;-63
2023/03/08 11:52:50;;;;;;;0.40;0.40;;;;;;;;;;5430907;23;20016;-63
2023/03/08 11:55:25;;;;;;;0.50;0.50;;;;;;;;;;5456802;23;20249;-61
2023/03/08 11:57:38;;;;;;;0.40;0.40;;;;;;;;;;5455653;23;20298;-63
2023/03/08 12:00:05;;;;;;;0.45;0.45;;;;;;;;;;5455145;23;20003;-61
2023/03/08 12:02:29;;;;;;;0.45;0.45;;;;;;;;;;5456328;23;20045;-62
2023/03/08 12:04:50;;;;;;;0.40;0.40;;;;;;;;;;5455725;23;20014;-63
2023/03/08 12:07:05;;;;;;;0.30;0.30;;;;;;;;;;5457443;23;20015;-63
2023/03/08 12:09:27;;;;;;;0.40;0.40;;;;;;;;;;5455684;23;20018;-64
2023/03/08 12:11:41;;;;;;;0.40;0.40;;;;;;;;;;5455131;23;20014;-64
2023/03/08 12:14:05;;;;;;;0.40;0.40;;;;;;;;;;5455432;23;20014;-64
2023/03/08 12:16:31;;;;;;;0.47;0.47;;;;;;;;;;5455652;23;20061;-64
2023/03/08 12:18:50;;;;;;;0.50;0.50;;;;;;;;;;5457578;23;20533;-64
2023/03/08 12:21:12;;;;;;;0.50;0.50;;;;;;;;;;5455584;23;20011;-64
2023/03/08 12:23:37;;;;;;;0.50;0.50;;;;;;;;;;5455276;23;20521;-64
2023/03/08 12:25:53;;;;;;;0.40;0.40;;;;;;;;;;5455630;23;20015;-63
2023/03/08 12:28:24;;;;;;;0.50;0.40;;;;;;;;;;5455841;23;20010;-63
2023/03/08 12:30:58;;;;;;;0.40;0.40;;;;;;;;;;5455493;23;20014;-64
2023/03/08 12:33:11;;;;;;;0.40;0.40;;;;;;;;;;5456645;23;20006;-63
2023/03/08 12:35:22;;;;;;;0.50;0.50;;;;;;;;;;5455401;23;20058;-63
2023/03/08 12:37:32;;;;;;;0.50;0.50;;;;;;;;;;5457571;23;20019;-61
2023/03/08 12:39:54;;;;;;;0.50;0.50;;;;;;;;;;5457434;23;20075;-61
2023/03/08 12:42:15;;;;;;;0.40;0.40;;;;;;;;;;5455294;23;20045;-61
2023/03/08 12:44:28;;;;;;;0.40;0.40;;;;;;;;;;5455681;23;20947;-61
2023/03/08 12:46:47;;;;;;;0.50;0.50;;;;;;;;;;5457230;23;20030;-62
2023/03/08 12:48:57;;;;;;;0.57;0.55;;;;;;;;;;5455622;23;20545;-62
2023/03/08 12:51:11;;;;;;;0.40;0.40;;;;;;;;;;5455644;23;20002;-62
2023/03/08 12:53:43;;;;;;;0.50;0.50;;;;;;;;;;5457245;23;20054;-63
2023/03/08 12:56:25;;;;;;;0.50;0.50;;;;;;;;;;5456726;23;20007;-63
2023/03/08 12:58:54;;;;;;;0.40;0.40;;;;;;;;;;5461375;23;20026;-64
2023/03/08 13:01:21;;;;;;;0.40;0.40;;;;;;;;;;5433390;23;20098;-63
2023/03/08 13:03:37;;;;;;;0.40;0.40;;;;;;;;;;5457511;23;20021;-63
2023/03/08 13:05:49;;;;;;;0.50;0.50;;;;;;;;;;5483585;23;20077;-63
2023/03/08 13:08:11;;;;;;;0.50;0.50;;;;;;;;;;5483105;23;20015;-62
2023/03/08 13:10:26;;;;;;;0.40;0.40;;;;;;;;;;5483481;23;20775;-63
2023/03/08 13:12:58;;;;;;;0.50;0.50;;;;;;;;;;5457554;23;20550;-66
2023/03/08 13:15:17;;;;;;;0.50;0.50;;;;;;;;;;5483492;23;20006;-65
2023/03/08 13:17:31;;;;;;;0.50;0.50;;;;;;;;;;5457467;23;20017;-63
2023/03/08 13:19:41;;;;;;;0.50;0.50;;;;;;;;;;5483758;23;20563;-62
2023/03/08 13:21:56;;;;;;;0.50;0.50;;;;;;;;;;5456796;23;20065;-63
2023/03/08 13:24:33;;;;;;;0.43;0.43;;;;;;;;;;5482820;23;20018;-62
2023/03/08 13:27:10;;;;;;;0.50;0.50;;;;;;;;;;5456819;23;25825;-63
2023/03/08 13:29:20;;;;;;;0.50;0.50;;;;;;;;;;5447572;23;20833;-62
2023/03/08 13:31:31;;;;;;;0.50;0.50;;;;;;;;;;5456817;23;20015;-61
2023/03/08 13:33:46;;;;;;;0.43;0.43;;;;;;;;;;5456676;23;20421;-62
2023/03/08 13:36:00;;;;;;;0.50;0.50;;;;;;;;;;5457311;23;20052;-62
2023/03/08 13:38:21;;;;;;;0.50;0.50;;;;;;;;;;5456866;23;20018;-62
2023/03/08 13:40:31;;;;;;;0.50;0.50;;;;;;;;;;5482446;23;20040;-62
2023/03/08 13:42:56;;;;;;;0.40;0.40;;;;;;;;;;5483006;23;20011;-62
2023/03/08 13:45:16;;;;;;;0.45;0.45;;;;;;;;;;5482508;23;20014;-62
2023/03/08 13:47:31;;;;;;;0.50;0.50;;;;;;;;;;5456569;23;21364;-62
2023/03/08 13:49:44;;;;;;;0.50;0.50;;;;;;;;;;5482593;23;20022;-61
2023/03/08 13:51:56;;;;;;;0.52;0.52;;;;;;;;;;5456168;23;20011;-62
2023/03/08 13:54:13;;;;;;;0.40;0.40;;;;;;;;;;5482479;23;20013;-62
2023/03/08 13:56:25;;;;;;;;;;;;;;;;;;5433442;23;20109;-61
2023/03/08 13:58:38;;;;;;;0.50;0.50;;;;;;;;;;5456408;23;19925;-61
2023/03/08 14:00:57;;;;;;;0.40;0.40;;;;;;;;;;5456449;23;20005;-66
2023/03/08 14:03:18;;;;;;;0.40;0.40;;;;;;;;;;5456501;23;20691;-62